createdAt,value
2022-10-30T00:00:30.382Z,10.16
2022-10-30T00:02:35.703Z,10.12
2022-10-30T00:04:40.726Z,10.18
2022-10-30T00:06:45.672Z,10.24
2022-10-30T00:08:50.615Z,10.33
2022-10-30T00:10:58.104Z,10.34
2022-10-30T00:13:03.104Z,10.35
2022-10-30T00:15:10.249Z,10.37
2022-10-30T00:17:15.202Z,10.39
2022-10-30T00:19:20.162Z,10.43
2022-10-30T00:21:25.096Z,10.45
2022-10-30T00:23:30.002Z,10.43
2022-10-30T00:25:34.958Z,10.42
2022-10-30T00:27:42.521Z,10.43
2022-10-30T00:29:47.547Z,10.44
2022-10-30T00:31:52.537Z,10.42
2022-10-30T00:33:58.061Z,10.44
2022-10-30T00:36:03.432Z,10.45
2022-10-30T00:38:08.407Z,10.44
2022-10-30T00:40:18.127Z,10.41
2022-10-30T00:42:23.380Z,10.34
2022-10-30T00:44:50.335Z,10.26
2022-10-30T00:46:55.417Z,10.19
2022-10-30T00:49:05.899Z,10.17
2022-10-30T00:51:14.151Z,10.17
2022-10-30T00:53:23.237Z,10.09
2022-10-30T00:55:34.384Z,10.05
2022-10-30T00:57:41.050Z,10.03
2022-10-30T00:59:50.701Z,9.94
2022-10-30T01:01:57.145Z,9.91
2022-10-30T01:04:05.238Z,9.87
2022-10-30T01:06:14.910Z,9.82
2022-10-30T01:08:20.468Z,9.77
2022-10-30T01:10:25.955Z,9.75
2022-10-30T01:12:31.221Z,9.76
2022-10-30T01:14:39.120Z,9.73
2022-10-30T01:17:04.676Z,9.75
2022-10-30T01:19:28.874Z,9.82
2022-10-30T01:21:53.224Z,9.90
2022-10-30T01:24:13.923Z,9.91
2022-10-30T01:26:29.130Z,9.93
2022-10-30T01:28:53.768Z,10.04
2022-10-30T02:13:39.280Z,10.36
2022-10-30T02:15:48.153Z,10.38
2022-10-30T02:17:53.185Z,10.35
2022-10-30T02:19:58.637Z,10.30
2022-10-30T02:22:06.536Z,10.26
2022-10-30T02:24:11.725Z,10.26
2022-10-30T02:26:16.803Z,10.24
2022-10-30T02:28:21.814Z,10.18
2022-10-30T02:30:27.356Z,10.19
2022-10-30T02:32:32.955Z,10.20
2022-10-30T02:34:38.175Z,10.21
2022-10-30T02:36:43.109Z,10.23
2022-10-30T02:38:51.712Z,10.22
2022-10-30T02:40:56.647Z,10.20
2022-10-30T02:43:01.664Z,10.18
2022-10-30T02:45:09.063Z,10.18
2022-10-30T02:47:14.130Z,10.16
2022-10-30T02:49:19.108Z,10.13
2022-10-30T02:51:24.070Z,10.08
2022-10-30T02:53:29.103Z,10.05
2022-10-30T02:55:37.783Z,10.02
2022-10-30T02:57:42.815Z,10.00
2022-10-30T02:59:47.811Z,9.96
2022-10-30T03:01:53.102Z,9.92
2022-10-30T03:03:59.348Z,9.90
2022-10-30T03:06:05.327Z,9.89
2022-10-30T03:08:10.305Z,9.92
2022-10-30T03:10:15.217Z,9.91
2022-10-30T03:12:22.798Z,9.85
2022-10-30T03:14:30.305Z,9.79
2022-10-30T03:16:35.315Z,9.80
2022-10-30T03:18:40.705Z,9.75
2022-10-30T03:20:48.035Z,9.73
2022-10-30T03:22:53.086Z,9.70
2022-10-30T03:24:58.049Z,9.62
2022-10-30T03:27:03.151Z,9.56
2022-10-30T03:29:10.906Z,9.50
2022-10-30T03:34:05.242Z,9.40
2022-10-30T03:36:12.868Z,9.34
2022-10-30T03:38:18.045Z,9.35
2022-10-30T03:40:23.067Z,9.44
2022-10-30T03:42:28.317Z,9.41
2022-10-30T03:44:35.963Z,9.38
2022-10-30T03:46:41.813Z,9.29
2022-10-30T03:49:01.533Z,9.20
2022-10-30T03:51:08.691Z,9.15
2022-10-30T03:53:17.523Z,9.10
2022-10-30T03:55:27.152Z,9.08
2022-10-30T03:57:33.693Z,9.03
2022-10-30T03:59:55.606Z,9.03
2022-10-30T04:04:48.541Z,8.81
2022-10-30T04:06:55.046Z,8.76
2022-10-30T04:09:02.112Z,8.66
2022-10-30T04:11:14.803Z,8.66
2022-10-30T04:13:22.452Z,8.68
2022-10-30T04:15:36.416Z,8.65
2022-10-30T04:17:42.234Z,8.67
2022-10-30T04:19:49.589Z,8.72
2022-10-30T04:21:56.403Z,8.76
2022-10-30T04:24:02.116Z,8.82
2022-10-30T04:26:11.265Z,8.87
2022-10-30T04:28:21.727Z,8.85
2022-10-30T04:30:28.022Z,8.90
2022-10-30T04:32:36.907Z,8.92
2022-10-30T04:34:43.552Z,8.82
2022-10-30T04:36:50.899Z,8.79
2022-10-30T04:38:56.822Z,8.81
2022-10-30T04:41:05.171Z,8.77
2022-10-30T04:43:25.334Z,8.88
2022-10-30T04:45:31.682Z,8.88
2022-10-30T04:47:41.499Z,8.96
2022-10-30T04:49:47.571Z,8.93
2022-10-30T04:51:54.226Z,8.96
2022-10-30T04:54:02.040Z,9.05
2022-10-30T04:56:14.089Z,9.08
2022-10-30T04:58:20.425Z,9.09
2022-10-30T05:00:32.871Z,9.28
2022-10-30T05:02:51.301Z,9.36
2022-10-30T05:04:57.179Z,9.39
2022-10-30T05:07:03.879Z,9.49
2022-10-30T05:09:10.733Z,9.56
2022-10-30T05:11:19.362Z,9.58
2022-10-30T05:13:27.279Z,9.68
2022-10-30T05:15:33.566Z,9.71
2022-10-30T05:17:40.258Z,9.82
2022-10-30T05:19:50.660Z,9.85
2022-10-30T05:21:56.742Z,9.87
2022-10-30T05:24:03.309Z,9.93
2022-10-30T05:26:17.021Z,10.03
2022-10-30T05:28:23.689Z,10.12
2022-10-30T05:33:50.750Z,10.15
2022-10-30T05:36:00.527Z,10.04
2022-10-30T05:38:09.545Z,9.94
2022-10-30T05:40:17.117Z,9.89
2022-10-30T05:42:23.620Z,9.89
2022-10-30T05:44:58.648Z,9.83
2022-10-30T06:04:00.192Z,10.01
2022-10-30T06:06:06.831Z,10.06
2022-10-30T06:08:13.879Z,10.07
2022-10-30T06:10:21.202Z,10.16
2022-10-30T06:12:44.250Z,10.27
2022-10-30T06:15:02.705Z,10.28
2022-10-30T06:17:10.777Z,10.23
2022-10-30T06:19:32.792Z,10.22
2022-10-30T06:22:09.069Z,10.17
2022-10-30T06:24:27.669Z,10.24
2022-10-30T06:26:54.383Z,10.31
2022-10-30T06:29:03.265Z,10.35
2022-10-30T06:31:10.749Z,10.37
2022-10-30T06:33:18.311Z,10.39
2022-10-30T06:35:32.173Z,10.42
2022-10-30T06:37:40.237Z,10.44
2022-10-30T06:39:50.384Z,10.49
2022-10-30T06:42:19.426Z,10.51
2022-10-30T06:44:58.601Z,10.57
2022-10-30T06:47:05.823Z,10.61
2022-10-30T06:49:12.210Z,10.65
2022-10-30T06:51:22.122Z,10.77
2022-10-30T06:53:31.901Z,10.90
2022-10-30T06:56:18.064Z,11.10
2022-10-30T06:58:57.308Z,11.27
2022-10-30T07:01:15.218Z,11.39
2022-10-30T07:03:50.382Z,11.52
2022-10-30T07:05:56.910Z,11.64
2022-10-30T07:08:07.438Z,11.71
2022-10-30T07:10:14.449Z,11.84
2022-10-30T07:13:01.124Z,12.06
2022-10-30T07:15:29.154Z,12.30
2022-10-30T07:17:43.710Z,12.46
2022-10-30T07:19:59.201Z,12.67
2022-10-30T07:22:06.057Z,12.76
2022-10-30T07:24:16.622Z,12.97
2022-10-30T07:26:50.889Z,13.02
2022-10-30T07:29:10.466Z,13.08
2022-10-30T07:31:41.532Z,13.19
2022-10-30T07:33:48.959Z,13.29
2022-10-30T07:36:21.356Z,13.48
2022-10-30T07:38:32.146Z,13.63
2022-10-30T07:40:56.824Z,13.85
2022-10-30T07:43:21.873Z,14.00
2022-10-30T07:46:01.730Z,14.13
2022-10-30T07:48:44.046Z,14.17
2022-10-30T07:51:07.228Z,14.21
2022-10-30T07:53:17.406Z,14.33
2022-10-30T07:55:26.062Z,14.39
2022-10-30T07:57:40.428Z,14.48
2022-10-30T07:59:58.210Z,14.52
2022-10-30T08:02:18.599Z,14.52
2022-10-30T08:04:53.333Z,14.61
2022-10-30T08:07:33.831Z,14.68
2022-10-30T08:09:41.555Z,14.74
2022-10-30T08:11:47.838Z,14.77
2022-10-30T08:13:57.958Z,14.83
2022-10-30T08:16:04.315Z,14.89
2022-10-30T08:18:12.489Z,15.00
2022-10-30T08:20:24.244Z,15.05
2022-10-30T08:22:31.711Z,15.18
2022-10-30T08:24:40.007Z,15.28
2022-10-30T08:26:46.001Z,15.38
2022-10-30T08:28:52.674Z,15.52
2022-10-30T08:31:02.567Z,15.67
2022-10-30T08:33:30.038Z,15.77
2022-10-30T08:37:42.004Z,16.09
2022-10-30T08:39:48.993Z,16.24
2022-10-30T08:42:14.616Z,16.44
2022-10-30T08:44:23.949Z,16.60
2022-10-30T08:46:50.548Z,16.84
2022-10-30T08:48:58.903Z,16.92
2022-10-30T08:51:05.466Z,17.09
2022-10-30T08:53:18.362Z,17.24
2022-10-30T08:55:25.799Z,17.41
2022-10-30T08:57:32.391Z,17.45
2022-10-30T08:59:39.922Z,17.57
2022-10-30T09:01:55.207Z,17.65
2022-10-30T09:04:00.346Z,17.78
2022-10-30T09:06:28.803Z,17.95
2022-10-30T09:08:56.992Z,18.10
2022-10-30T09:11:09.932Z,18.19
2022-10-30T09:13:15.313Z,18.30
2022-10-30T09:15:21.232Z,18.47
2022-10-30T09:17:36.444Z,18.53
2022-10-30T09:19:42.294Z,18.69
2022-10-30T09:21:51.836Z,18.77
2022-10-30T09:23:57.020Z,18.92
2022-10-30T09:26:17.039Z,19.10
2022-10-30T09:28:32.156Z,19.21
2022-10-30T09:30:57.154Z,19.32
2022-10-30T09:33:07.070Z,19.48
2022-10-30T09:35:33.100Z,19.64
2022-10-30T09:37:39.105Z,19.72
2022-10-30T09:39:56.873Z,19.71
2022-10-30T09:42:39.993Z,19.77
2022-10-30T09:47:43.516Z,20.02
2022-10-30T09:50:23.085Z,20.20
2022-10-30T09:52:37.701Z,20.39
2022-10-30T09:54:58.405Z,20.58
2022-10-30T09:57:09.468Z,20.67
2022-10-30T09:59:31.572Z,20.86
2022-10-30T10:01:45.202Z,20.85
2022-10-30T10:04:04.314Z,20.91
2022-10-30T10:06:44.749Z,20.98
2022-10-30T10:09:16.996Z,21.10
2022-10-30T10:11:45.385Z,21.24
2022-10-30T10:13:56.771Z,21.43
2022-10-30T10:16:10.481Z,21.52
2022-10-30T10:18:20.728Z,21.71
2022-10-30T10:20:35.564Z,21.88
2022-10-30T10:22:50.694Z,22.17
2022-10-30T11:03:00.111Z,22.67
2022-10-30T11:05:20.907Z,22.66
2022-10-30T11:07:29.559Z,22.67
2022-10-30T11:09:34.530Z,22.79
2022-10-30T11:11:39.559Z,22.88
2022-10-30T11:13:46.706Z,22.78
2022-10-30T11:16:02.614Z,22.89
2022-10-30T11:18:14.845Z,23.02
2022-10-30T11:20:28.198Z,22.95
2022-10-30T11:22:36.200Z,22.90
2022-10-30T11:24:41.193Z,23.05
2022-10-30T11:26:46.302Z,23.17
2022-10-30T11:28:55.695Z,23.22
2022-10-30T11:31:22.203Z,23.33
2022-10-30T11:33:33.412Z,23.19
2022-10-30T11:35:45.427Z,23.45
2022-10-30T11:37:52.813Z,23.37
2022-10-30T11:40:07.363Z,23.41
2022-10-30T11:42:17.336Z,23.49
2022-10-30T11:44:22.518Z,23.62
2022-10-30T11:46:28.155Z,23.83
2022-10-30T11:48:38.225Z,23.73
2022-10-30T11:50:50.361Z,23.82
2022-10-30T11:53:01.224Z,23.80
2022-10-30T11:55:17.934Z,23.86
2022-10-30T11:57:27.464Z,23.84
2022-10-30T11:59:32.747Z,23.78
2022-10-30T12:01:39.745Z,23.77
2022-10-30T12:03:48.112Z,23.80
2022-10-30T12:05:53.101Z,23.79
2022-10-30T12:08:20.260Z,23.79
2022-10-30T12:10:28.702Z,23.74
2022-10-30T12:12:41.239Z,23.80
2022-10-30T12:14:46.303Z,23.83
2022-10-30T12:16:53.835Z,23.97
2022-10-30T12:19:09.313Z,24.21
2022-10-30T12:21:22.006Z,24.16
2022-10-30T12:23:29.629Z,24.19
2022-10-30T12:25:35.733Z,24.71
2022-10-30T12:27:41.159Z,24.65
2022-10-30T12:30:10.015Z,24.78
2022-10-30T12:32:22.292Z,24.96
2022-10-30T12:34:47.369Z,25.24
2022-10-30T12:36:58.875Z,25.41
2022-10-30T12:39:13.147Z,25.74
2022-10-30T12:41:27.380Z,26.07
2022-10-30T12:43:36.282Z,26.38
2022-10-30T12:45:46.086Z,26.62
2022-10-30T12:48:00.657Z,26.90
2022-10-30T12:50:21.650Z,27.16
2022-10-30T12:52:36.904Z,27.12
2022-10-30T13:04:19.938Z,28.25
2022-10-30T13:06:34.504Z,28.77
2022-10-30T13:08:50.948Z,28.84
2022-10-30T13:11:03.050Z,29.01
2022-10-30T13:13:16.189Z,29.20
2022-10-30T13:15:29.052Z,29.28
2022-10-30T13:17:33.846Z,29.30
2022-10-30T13:19:43.891Z,29.55
2022-10-30T13:22:01.842Z,29.78
2022-10-30T13:24:13.788Z,29.71
2022-10-30T13:26:32.852Z,30.11
2022-10-30T13:28:46.349Z,29.89
2022-10-30T13:31:02.639Z,29.60
2022-10-30T13:33:18.682Z,29.74
2022-10-30T13:35:36.070Z,29.99
2022-10-30T13:37:50.512Z,29.54
2022-10-30T13:40:14.694Z,29.32
2022-10-30T13:42:38.375Z,29.62
2022-10-30T13:44:58.887Z,29.86
2022-10-30T13:47:18.067Z,29.56
2022-10-30T13:49:41.849Z,29.00
2022-10-30T13:51:49.590Z,28.46
2022-10-30T13:54:10.380Z,28.06
2022-10-30T13:56:22.074Z,27.67
2022-10-30T13:58:37.758Z,27.10
2022-10-30T14:01:03.124Z,27.27
2022-10-30T14:03:30.649Z,27.08
2022-10-30T14:05:49.082Z,27.08
2022-10-30T14:08:05.988Z,27.51
2022-10-30T14:10:23.312Z,28.26
2022-10-30T14:12:54.651Z,28.90
2022-10-30T14:14:59.813Z,28.74
2022-10-30T14:17:15.750Z,29.29
2022-10-30T14:19:21.678Z,29.48
2022-10-30T14:21:59.968Z,29.92
2022-10-30T14:33:54.900Z,30.61
2022-10-30T14:36:47.426Z,30.14
2022-10-30T14:39:30.310Z,30.50
2022-10-30T14:41:51.407Z,29.98
2022-10-30T14:44:12.925Z,30.29
2022-10-30T14:46:29.334Z,30.59
2022-10-30T14:48:48.638Z,30.63
2022-10-30T14:51:11.855Z,30.56
2022-10-30T14:53:41.615Z,30.03
2022-10-30T14:56:00.296Z,30.00
2022-10-30T14:58:27.439Z,29.36
2022-10-30T15:00:42.112Z,29.30
2022-10-30T15:02:57.890Z,29.04
2022-10-30T15:05:42.044Z,27.76
2022-10-30T15:07:58.119Z,26.89
2022-10-30T15:10:18.981Z,26.16
2022-10-30T15:13:02.255Z,25.16
2022-10-30T15:15:13.718Z,24.37
2022-10-30T15:17:29.343Z,23.83
2022-10-30T15:19:37.225Z,23.42
2022-10-30T15:21:46.691Z,22.92
2022-10-30T15:23:57.838Z,22.51
2022-10-30T15:26:09.832Z,21.97
2022-10-30T15:28:20.321Z,21.61
2022-10-30T15:30:28.959Z,21.24
2022-10-30T15:32:34.063Z,21.01
2022-10-30T15:34:39.167Z,20.66
2022-10-30T15:36:45.249Z,20.28
2022-10-30T15:39:13.938Z,19.87
2022-10-30T15:41:19.783Z,19.49
2022-10-30T15:43:30.975Z,19.27
2022-10-30T15:45:41.940Z,19.04
2022-10-30T15:47:50.606Z,18.77
2022-10-30T15:49:57.196Z,18.54
2022-10-30T15:52:04.947Z,18.28
2022-10-30T15:54:16.354Z,18.05
2022-10-30T15:56:28.512Z,17.73
2022-10-30T15:58:37.676Z,17.60
2022-10-30T16:00:43.177Z,17.35
2022-10-30T16:02:51.902Z,17.22
2022-10-30T16:04:56.956Z,17.04
2022-10-30T16:07:05.778Z,16.88
2022-10-30T16:09:17.478Z,16.76
2022-10-30T16:11:24.714Z,16.54
2022-10-30T16:13:33.343Z,16.37
2022-10-30T16:15:42.798Z,16.21
2022-10-30T16:17:51.787Z,15.99
2022-10-30T16:20:06.170Z,15.86
2022-10-30T16:22:22.644Z,15.71
2022-10-30T16:24:35.631Z,15.51
2022-10-30T16:26:41.266Z,15.44
2022-10-30T16:28:50.619Z,15.30
2022-10-30T16:30:56.626Z,15.18
2022-10-30T16:33:02.841Z,15.09
2022-10-30T16:35:10.245Z,14.94
2022-10-30T16:37:20.988Z,14.80
2022-10-30T16:39:29.572Z,14.72
2022-10-30T16:41:35.825Z,14.65
2022-10-30T16:43:41.732Z,14.51
2022-10-30T16:45:51.785Z,14.42
2022-10-30T16:48:08.587Z,14.29
2022-10-30T16:50:18.698Z,14.16
2022-10-30T16:52:28.496Z,14.07
2022-10-30T16:54:41.362Z,14.01
2022-10-30T16:56:49.773Z,13.89
2022-10-30T16:58:57.339Z,13.82
2022-10-30T17:01:09.673Z,13.79
2022-10-30T17:03:15.207Z,13.79
2022-10-30T17:05:26.816Z,13.71
2022-10-30T17:07:31.979Z,13.62
2022-10-30T17:09:42.797Z,13.59
2022-10-30T17:12:03.177Z,13.49
2022-10-30T17:14:20.559Z,13.44
2022-10-30T17:16:28.024Z,13.31
2022-10-30T17:18:33.814Z,13.32
2022-10-30T17:20:39.598Z,13.28
2022-10-30T17:22:44.652Z,13.23
2022-10-30T17:24:52.466Z,13.17
2022-10-30T17:27:00.754Z,13.13
2022-10-30T17:29:05.913Z,13.08
2022-10-30T17:31:26.781Z,13.05
2022-10-30T17:33:38.855Z,12.99
2022-10-30T17:35:43.877Z,12.84
2022-10-30T17:37:49.200Z,12.85
2022-10-30T17:39:56.957Z,12.79
2022-10-30T17:42:02.167Z,12.74
2022-10-30T17:44:10.058Z,12.72
2022-10-30T17:46:20.130Z,12.68
2022-10-30T17:48:29.588Z,12.61
2022-10-30T17:50:34.892Z,12.59
2022-10-30T17:52:39.948Z,12.53
2022-10-30T17:54:45.747Z,12.41
2022-10-30T17:56:53.708Z,12.34
2022-10-30T17:58:58.933Z,12.25
2022-10-30T18:01:04.127Z,12.26
2022-10-30T18:03:09.470Z,12.21
2022-10-30T18:05:21.445Z,12.22
2022-10-30T18:07:26.323Z,12.18
2022-10-30T18:09:31.220Z,12.17
2022-10-30T18:11:36.446Z,12.09
2022-10-30T18:13:45.072Z,12.04
2022-10-30T18:15:57.272Z,12.00
2022-10-30T18:18:02.488Z,11.96
2022-10-30T18:20:09.435Z,11.94
2022-10-30T18:22:14.341Z,11.94
2022-10-30T18:24:19.288Z,11.83
2022-10-30T18:26:26.700Z,11.77
2022-10-30T18:28:32.022Z,11.69
2022-10-30T18:30:39.575Z,11.61
2022-10-30T18:32:45.946Z,11.60
2022-10-30T18:34:50.949Z,11.58
2022-10-30T18:36:56.111Z,11.61
2022-10-30T18:39:01.096Z,11.59
2022-10-30T18:41:06.692Z,11.54
2022-10-30T18:43:13.525Z,11.48
2022-10-30T18:45:26.352Z,11.40
2022-10-30T18:47:34.142Z,11.33
2022-10-30T18:49:39.290Z,11.26
2022-10-30T18:51:44.710Z,11.22
2022-10-30T18:53:53.820Z,11.29
2022-10-30T18:55:59.053Z,11.23
2022-10-30T18:58:04.333Z,11.22
2022-10-30T19:00:12.058Z,11.19
2022-10-30T19:02:23.452Z,11.14
2022-10-30T19:04:31.779Z,11.08
2022-10-30T19:06:38.596Z,11.04
2022-10-30T19:08:43.873Z,10.97
2022-10-30T19:10:50.227Z,10.96
2022-10-30T19:13:16.923Z,10.90
2022-10-30T19:15:27.858Z,10.92
2022-10-30T19:17:33.390Z,10.96
2022-10-30T19:19:41.683Z,10.92
2022-10-30T19:21:46.672Z,10.95
2022-10-30T19:32:56.545Z,10.75
2022-10-30T19:35:04.283Z,10.65
2022-10-30T19:37:11.870Z,10.58
2022-10-30T19:39:18.631Z,10.58
2022-10-30T19:41:24.860Z,10.55
2022-10-30T19:43:30.633Z,10.46
2022-10-30T19:45:37.378Z,10.40
2022-10-30T19:47:42.721Z,10.43
2022-10-30T19:49:48.193Z,10.47
2022-10-30T19:51:55.873Z,10.37
2022-10-30T19:54:00.951Z,10.30
2022-10-30T19:56:06.541Z,10.31
2022-10-30T19:58:16.423Z,10.25
2022-10-30T20:00:24.812Z,10.21
2022-10-30T20:02:30.536Z,10.11
2022-10-30T20:04:35.651Z,10.06
2022-10-30T20:06:40.926Z,10.14
2022-10-30T20:08:49.377Z,10.14
2022-10-30T20:10:57.061Z,10.16
2022-10-30T20:13:02.336Z,9.97
2022-10-30T20:15:08.262Z,9.88
2022-10-30T20:17:18.390Z,9.78
2022-10-30T20:19:31.221Z,9.79
2022-10-30T20:21:37.701Z,9.72
2022-10-30T20:23:42.776Z,9.66
2022-10-30T20:25:51.108Z,9.56
2022-10-30T20:28:06.790Z,9.56
2022-10-30T20:30:19.176Z,9.61
2022-10-30T20:32:24.176Z,9.62
2022-10-30T20:34:29.397Z,9.62
2022-10-30T20:36:34.782Z,9.58
2022-10-30T20:38:40.763Z,9.58
2022-10-30T20:40:49.250Z,9.56
2022-10-30T20:42:57.157Z,9.52
2022-10-30T20:45:06.224Z,9.38
2022-10-30T20:47:11.363Z,9.35
2022-10-30T20:49:17.629Z,9.37
2022-10-30T20:51:23.444Z,9.44
2022-10-30T20:53:29.381Z,9.42
2022-10-30T20:55:36.627Z,9.44
2022-10-30T20:57:44.243Z,9.61
2022-10-30T20:59:49.782Z,9.56
2022-10-30T21:01:55.208Z,9.53
2022-10-30T21:04:01.898Z,9.45
2022-10-30T21:06:10.184Z,9.32
2022-10-30T21:08:15.827Z,9.36
2022-10-30T21:10:21.012Z,9.20
2022-10-30T21:12:26.303Z,9.10
2022-10-30T21:14:34.351Z,9.20
2022-10-30T21:16:39.710Z,9.20
2022-10-30T21:18:44.647Z,9.23
2022-10-30T21:20:50.272Z,9.21
2022-10-30T21:22:55.336Z,9.08
2022-10-30T21:25:00.821Z,9.08
2022-10-30T21:27:06.009Z,9.09
2022-10-30T21:29:10.951Z,9.07
2022-10-30T21:31:18.828Z,8.96
2022-10-30T21:33:23.767Z,8.90
2022-10-30T21:35:29.361Z,8.97
2022-10-30T21:37:38.025Z,8.91
2022-10-30T21:39:43.000Z,8.72
2022-10-30T21:41:48.234Z,8.72
2022-10-30T21:43:55.167Z,8.71
2022-10-30T21:46:00.400Z,8.75
2022-10-30T21:48:09.290Z,8.74
2022-10-30T21:50:14.259Z,8.88
2022-10-30T21:52:20.796Z,8.82
2022-10-30T21:54:26.166Z,8.76
2022-10-30T21:56:33.043Z,8.77
2022-10-30T21:58:38.921Z,8.77
2022-10-30T22:00:43.926Z,8.79
2022-10-30T22:02:48.892Z,8.87
2022-10-30T22:04:56.425Z,8.86
2022-10-30T22:07:01.702Z,8.95
2022-10-30T22:09:07.015Z,8.94
2022-10-30T22:11:13.647Z,8.93
2022-10-30T22:13:19.755Z,8.90
2022-10-30T22:15:24.772Z,8.93
2022-10-30T22:17:32.335Z,8.95
2022-10-30T22:19:39.781Z,8.87
2022-10-30T22:21:47.653Z,8.82
2022-10-30T22:23:52.956Z,8.87
2022-10-30T22:25:59.934Z,8.78
2022-10-30T22:28:05.666Z,8.72
2022-10-30T22:30:12.995Z,8.74
2022-10-30T22:32:17.926Z,8.90
2022-10-30T22:34:22.884Z,8.98
2022-10-30T22:36:30.732Z,9.06
2022-10-30T22:38:38.510Z,8.95
2022-10-30T22:40:44.364Z,8.93
2022-10-30T22:42:49.624Z,8.90
2022-10-30T22:44:55.025Z,8.89
2022-10-30T22:46:59.949Z,8.93
2022-10-30T22:49:06.685Z,8.92
2022-10-30T22:51:15.664Z,8.89
2022-10-30T22:53:21.769Z,8.87
2022-10-30T22:55:31.471Z,8.81
2022-10-30T22:57:36.395Z,8.77
2022-10-30T22:59:41.337Z,8.79
2022-10-30T23:01:46.622Z,8.86
2022-10-30T23:03:52.422Z,8.75
2022-10-30T23:05:59.759Z,8.65
2022-10-30T23:08:05.423Z,8.68
2022-10-30T23:10:11.746Z,8.64
2022-10-30T23:12:19.522Z,8.58
2022-10-30T23:14:24.723Z,8.55
2022-10-30T23:16:31.686Z,8.45
2022-10-30T23:18:38.266Z,8.33
2022-10-30T23:20:44.470Z,8.37
2022-10-30T23:22:49.392Z,8.24
2022-10-30T23:24:55.063Z,8.19
2022-10-30T23:27:00.078Z,8.16
2022-10-30T23:29:08.634Z,8.08
2022-10-30T23:31:18.665Z,8.05
2022-10-30T23:33:23.606Z,7.93
2022-10-30T23:35:28.579Z,7.78
2022-10-30T23:37:33.509Z,7.82
2022-10-30T23:39:38.452Z,7.74
2022-10-30T23:41:43.726Z,7.59
2022-10-30T23:43:48.976Z,7.59
2022-10-30T23:45:56.526Z,7.64
2022-10-30T23:48:01.841Z,7.58
2022-10-30T23:50:08.654Z,7.74
2022-10-30T23:52:13.571Z,7.73
2022-10-30T23:54:18.735Z,7.66
2022-10-30T23:56:24.379Z,7.60
2022-10-30T23:58:29.415Z,7.53
